F00 weather

Jones Field
Bonham, Texas, United States

Public forecast

Using degrees Fahrenheit for public forecast. Weather courtesy of forecast.io.

METAR (pilot weather report)

Report is more than 6 hours old.

Closest report is Eaker Field, 22.5 nm (41.7 km) NNW. Retrieved 2019/06/14 21:19 UTC (2 days ago):

KDUA 142119Z AUTO 17019G23KT 10SM CLR 33/19 A2989 RMK AO2

TAF (pilot weather forecast)

Closest forecast is Dallas Love Field, 57.0 nm (105.6 km) SW. Retrieved 2019/06/16 18:24 UTC (0 seconds ago):

TAF KDAL 161720Z 1618/1718 15013KT P6SM SCT025 BKN200 TEMPO 1618/1620 BKN025 FM162000 17016KT P6SM VCTS BKN040CB TEMPO 1621/1624 5SM TSRA BKN035CB FM170400 12014KT P6SM BKN050